createdAt,value
2022-11-24T00:00:26.095Z,5.34
2022-11-24T00:02:24.565Z,5.24
2022-11-24T00:04:22.760Z,5.19
2022-11-24T00:06:21.097Z,5.17
2022-11-24T00:08:19.493Z,5.12
2022-11-24T00:10:18.010Z,5.05
2022-11-24T00:12:17.846Z,4.96
2022-11-24T00:14:15.923Z,5.01
2022-11-24T00:16:15.990Z,5.15
2022-11-24T00:18:14.475Z,5.18
2022-11-24T00:20:12.874Z,5.04
2022-11-24T00:22:11.174Z,5.14
2022-11-24T00:24:09.680Z,5.05
2022-11-24T00:26:10.248Z,4.91
2022-11-24T00:28:10.053Z,4.91
2022-11-24T00:30:12.391Z,4.94
2022-11-24T00:32:10.924Z,4.88
2022-11-24T00:34:12.597Z,4.87
2022-11-24T00:36:10.852Z,4.87
2022-11-24T00:38:08.938Z,4.99
2022-11-24T00:40:10.971Z,4.99
2022-11-24T00:42:09.441Z,5.04
2022-11-24T00:44:09.727Z,4.94
2022-11-24T00:46:08.153Z,4.95
2022-11-24T00:48:07.203Z,4.97
2022-11-24T00:50:06.203Z,4.79
2022-11-24T00:52:04.417Z,4.77
2022-11-24T00:54:02.890Z,4.80
2022-11-24T00:56:03.673Z,4.80
2022-11-24T00:58:01.921Z,4.80
2022-11-24T01:00:01.547Z,4.83
2022-11-24T01:02:02.692Z,4.85
2022-11-24T01:04:02.673Z,4.90
2022-11-24T01:06:04.624Z,5.03
2022-11-24T01:08:03.084Z,5.03
2022-11-24T01:10:01.762Z,4.94
2022-11-24T01:12:02.733Z,4.77
2022-11-24T01:14:03.792Z,4.69
2022-11-24T01:16:03.563Z,4.61
2022-11-24T01:18:01.968Z,4.53
2022-11-24T01:20:00.153Z,4.53
2022-11-24T01:21:58.365Z,4.51
2022-11-24T01:23:56.712Z,4.58
2022-11-24T01:25:55.161Z,4.68
2022-11-24T01:27:53.523Z,4.63
2022-11-24T01:29:51.702Z,4.71
2022-11-24T01:31:51.328Z,4.77
2022-11-24T01:33:49.900Z,4.81
2022-11-24T01:35:48.074Z,4.80
2022-11-24T01:37:46.376Z,4.71
2022-11-24T01:39:44.644Z,4.63
2022-11-24T01:41:43.157Z,4.64
2022-11-24T01:43:42.200Z,4.61
2022-11-24T01:45:41.750Z,4.63
2022-11-24T01:47:42.287Z,4.70
2022-11-24T01:49:46.022Z,4.78
2022-11-24T01:51:48.800Z,4.94
2022-11-24T01:53:53.679Z,5.05
2022-11-24T01:55:53.848Z,5.11
2022-11-24T01:57:56.653Z,5.19
2022-11-24T02:00:01.030Z,5.20
2022-11-24T02:01:59.707Z,5.11
2022-11-24T02:04:01.113Z,5.06
2022-11-24T02:06:03.737Z,5.04
2022-11-24T02:08:03.220Z,5.01
2022-11-24T02:10:05.932Z,5.00
2022-11-24T02:12:04.736Z,5.02
2022-11-24T02:14:03.333Z,5.02
2022-11-24T02:16:02.462Z,5.03
2022-11-24T02:18:00.975Z,5.10
2022-11-24T02:20:04.148Z,5.31
2022-11-24T02:22:04.144Z,5.39
2022-11-24T02:24:10.252Z,5.33
2022-11-24T02:26:20.322Z,5.28
2022-11-24T02:28:22.602Z,5.35
2022-11-24T02:30:20.867Z,5.41
2022-11-24T02:32:21.091Z,5.23
2022-11-24T02:34:19.364Z,5.12
2022-11-24T02:36:17.790Z,5.04
2022-11-24T02:38:16.315Z,4.95
2022-11-24T02:40:16.795Z,4.90
2022-11-24T02:42:15.202Z,4.91
2022-11-24T02:44:19.179Z,4.88
2022-11-24T02:46:17.630Z,4.81
2022-11-24T02:48:16.303Z,4.93
2022-11-24T02:50:14.820Z,5.03
2022-11-24T02:52:12.925Z,5.02
2022-11-24T02:54:11.177Z,4.95
2022-11-24T02:56:09.731Z,5.02
2022-11-24T02:58:07.954Z,5.08
2022-11-24T03:00:09.572Z,4.99
2022-11-24T03:02:07.802Z,4.86
2022-11-24T03:04:06.139Z,4.81
2022-11-24T03:06:04.493Z,4.78
2022-11-24T03:08:02.712Z,4.82
2022-11-24T03:10:00.938Z,4.86
2022-11-24T03:11:59.178Z,4.88
2022-11-24T03:13:57.546Z,4.95
2022-11-24T03:15:57.311Z,4.96
2022-11-24T03:17:56.953Z,4.97
2022-11-24T03:19:55.854Z,5.17
2022-11-24T03:21:56.161Z,5.24
2022-11-24T03:23:55.357Z,5.23
2022-11-24T03:25:53.611Z,5.14
2022-11-24T03:27:51.798Z,5.23
2022-11-24T03:29:49.950Z,5.29
2022-11-24T03:31:49.612Z,5.28
2022-11-24T03:33:47.827Z,5.20
2022-11-24T03:35:46.065Z,5.16
2022-11-24T03:37:44.379Z,5.09
2022-11-24T03:39:42.655Z,5.06
2022-11-24T03:41:40.879Z,5.01
2022-11-24T03:43:43.507Z,5.02
2022-11-24T03:45:46.526Z,5.01
2022-11-24T03:47:46.809Z,5.19
2022-11-24T03:49:45.001Z,5.27
2022-11-24T03:51:43.257Z,5.36
2022-11-24T03:53:41.553Z,5.35
2022-11-24T03:55:40.149Z,5.42
2022-11-24T03:57:38.362Z,5.33
2022-11-24T03:59:38.321Z,5.20
2022-11-24T04:01:36.942Z,5.13
2022-11-24T04:03:36.944Z,5.04
2022-11-24T04:05:36.417Z,5.03
2022-11-24T04:07:42.505Z,4.99
2022-11-24T04:09:40.947Z,4.99
2022-11-24T04:11:53.062Z,5.00
2022-11-24T04:13:51.378Z,5.06
2022-11-24T04:15:49.822Z,5.10
2022-11-24T04:17:49.906Z,5.14
2022-11-24T04:19:49.886Z,5.27
2022-11-24T04:21:48.126Z,5.20
2022-11-24T04:23:46.377Z,5.17
2022-11-24T04:25:44.761Z,5.23
2022-11-24T04:27:43.278Z,5.26
2022-11-24T04:29:41.556Z,5.25
2022-11-24T04:31:39.979Z,5.25
2022-11-24T04:33:38.166Z,5.27
2022-11-24T04:35:38.228Z,5.27
2022-11-24T04:37:36.605Z,5.28
2022-11-24T04:39:35.251Z,5.28
2022-11-24T04:41:33.817Z,5.31
2022-11-24T04:43:36.343Z,5.43
2022-11-24T04:45:37.452Z,5.56
2022-11-24T04:47:36.059Z,5.64
2022-11-24T04:49:34.398Z,5.60
2022-11-24T04:51:34.009Z,5.60
2022-11-24T04:53:32.378Z,5.60
2022-11-24T04:55:30.776Z,5.58
2022-11-24T04:57:29.450Z,5.54
2022-11-24T04:59:27.733Z,5.51
2022-11-24T05:01:29.116Z,5.49
2022-11-24T05:03:27.436Z,5.49
2022-11-24T05:05:25.734Z,5.51
2022-11-24T05:07:25.378Z,5.51
2022-11-24T05:09:36.718Z,5.49
2022-11-24T05:11:41.955Z,5.59
2022-11-24T05:13:40.428Z,5.74
2022-11-24T05:15:39.463Z,5.77
2022-11-24T05:17:40.240Z,5.67
2022-11-24T05:19:38.788Z,5.85
2022-11-24T05:21:38.246Z,5.91
2022-11-24T05:23:37.875Z,5.83
2022-11-24T05:25:36.839Z,5.72
2022-11-24T05:27:35.321Z,5.63
2022-11-24T05:29:33.694Z,5.61
2022-11-24T05:31:32.264Z,5.60
2022-11-24T05:33:33.513Z,5.65
2022-11-24T05:35:32.101Z,5.63
2022-11-24T05:37:30.479Z,5.61
2022-11-24T05:39:30.230Z,5.56
2022-11-24T05:41:28.336Z,5.64
2022-11-24T05:43:26.759Z,5.74
2022-11-24T05:45:24.978Z,5.78
2022-11-24T05:47:23.769Z,5.84
2022-11-24T05:49:21.856Z,5.85
2022-11-24T05:51:20.137Z,5.95
2022-11-24T05:53:18.510Z,5.96
2022-11-24T05:55:20.063Z,5.81
2022-11-24T05:57:18.781Z,5.65
2022-11-24T05:59:17.011Z,5.54
2022-11-24T06:01:15.323Z,5.44
2022-11-24T06:03:13.779Z,5.38
2022-11-24T06:05:11.935Z,5.34
2022-11-24T06:07:12.425Z,5.33
2022-11-24T06:09:10.836Z,5.44
2022-11-24T06:11:19.731Z,5.53
2022-11-24T06:13:18.169Z,5.58
2022-11-24T06:15:17.399Z,5.49
2022-11-24T06:17:18.822Z,5.47
2022-11-24T06:19:17.078Z,5.45
2022-11-24T06:21:15.366Z,5.44
2022-11-24T06:23:18.525Z,5.42
2022-11-24T06:25:17.362Z,5.46
2022-11-24T06:27:25.922Z,5.78
2022-11-24T06:29:24.280Z,5.85
2022-11-24T06:31:24.841Z,5.86
2022-11-24T06:33:23.270Z,5.80
2022-11-24T06:35:22.773Z,5.91
2022-11-24T06:37:21.093Z,5.96
2022-11-24T06:39:19.449Z,6.03
2022-11-24T06:41:18.260Z,6.08
2022-11-24T06:43:18.038Z,6.22
2022-11-24T06:45:16.426Z,6.23
2022-11-24T06:47:14.696Z,6.25
2022-11-24T06:49:13.135Z,6.23
2022-11-24T06:51:14.202Z,6.15
2022-11-24T06:53:13.231Z,6.05
2022-11-24T06:55:11.453Z,6.12
2022-11-24T06:57:09.859Z,6.09
2022-11-24T06:59:15.678Z,5.91
2022-11-24T07:01:15.978Z,5.94
2022-11-24T07:03:16.659Z,6.07
2022-11-24T07:05:39.507Z,6.14
2022-11-24T07:07:43.261Z,6.05
2022-11-24T07:09:41.607Z,5.96
2022-11-24T07:11:40.591Z,5.95
2022-11-24T07:13:39.180Z,6.02
2022-11-24T07:15:41.777Z,6.07
2022-11-24T07:17:41.065Z,6.10
2022-11-24T07:19:39.371Z,6.18
2022-11-24T07:21:37.840Z,6.29
2022-11-24T07:23:41.854Z,6.40
2022-11-24T07:25:40.041Z,6.49
2022-11-24T07:27:38.471Z,6.56
2022-11-24T07:29:36.714Z,6.63
2022-11-24T07:31:38.281Z,6.74
2022-11-24T07:33:41.415Z,6.88
2022-11-24T07:35:42.247Z,6.78
2022-11-24T07:37:40.681Z,6.74
2022-11-24T07:39:38.944Z,6.72
2022-11-24T07:41:37.087Z,6.69
2022-11-24T07:43:36.949Z,6.77
2022-11-24T07:45:35.202Z,6.78
2022-11-24T07:47:34.834Z,6.85
2022-11-24T07:49:33.109Z,6.84
2022-11-24T07:51:31.369Z,6.95
2022-11-24T07:53:29.834Z,7.16
2022-11-24T07:55:28.308Z,7.29
2022-11-24T07:57:26.649Z,7.33
2022-11-24T07:59:24.855Z,7.18
2022-11-24T08:01:23.182Z,7.14
2022-11-24T08:03:22.907Z,7.04
2022-11-24T08:05:21.416Z,7.09
2022-11-24T08:07:19.690Z,6.93
2022-11-24T08:09:18.066Z,6.82
2022-11-24T08:11:18.571Z,6.64
2022-11-24T08:13:16.809Z,6.69
2022-11-24T08:15:15.147Z,6.60
2022-11-24T08:17:13.896Z,6.57
2022-11-24T08:19:25.866Z,6.43
2022-11-24T08:21:27.109Z,6.56
2022-11-24T08:23:25.324Z,6.61
2022-11-24T08:25:25.397Z,6.63
2022-11-24T08:27:23.711Z,6.49
2022-11-24T08:29:26.415Z,6.48
2022-11-24T08:31:28.457Z,6.39
2022-11-24T08:33:32.623Z,6.42
2022-11-24T08:35:40.209Z,6.33
2022-11-24T08:37:38.766Z,6.35
2022-11-24T08:39:37.235Z,6.36
2022-11-24T08:41:40.616Z,6.42
2022-11-24T08:43:40.685Z,6.41
2022-11-24T08:45:41.635Z,6.44
2022-11-24T08:48:06.117Z,6.42
2022-11-24T08:50:07.081Z,6.45
2022-11-24T08:52:07.106Z,6.47
2022-11-24T08:54:05.687Z,6.42
2022-11-24T08:56:04.478Z,6.26
2022-11-24T08:58:03.464Z,6.33
2022-11-24T09:00:04.715Z,6.37
2022-11-24T09:02:05.247Z,6.42
2022-11-24T09:04:05.690Z,6.39
2022-11-24T09:06:04.188Z,6.54
2022-11-24T09:08:06.803Z,6.78
2022-11-24T09:10:20.983Z,7.03
2022-11-24T09:12:22.657Z,7.13
2022-11-24T09:14:21.921Z,7.29
2022-11-24T09:16:23.009Z,6.87
2022-11-24T09:18:26.337Z,6.87
2022-11-24T09:20:29.313Z,6.91
2022-11-24T09:22:34.550Z,6.78
2022-11-24T09:24:34.273Z,6.59
2022-11-24T09:26:37.182Z,6.60
2022-11-24T09:28:35.940Z,6.56
2022-11-24T09:30:36.935Z,6.61
2022-11-24T09:32:35.414Z,6.94
2022-11-24T09:34:49.151Z,7.17
2022-11-24T09:36:47.667Z,7.20
2022-11-24T09:38:48.103Z,7.01
2022-11-24T09:40:47.947Z,7.08
2022-11-24T09:43:00.787Z,7.22
2022-11-24T09:45:57.568Z,7.28
2022-11-24T09:48:20.553Z,7.19
2022-11-24T09:50:24.763Z,6.99
2022-11-24T09:52:39.657Z,6.73
2022-11-24T09:54:46.597Z,6.54
2022-11-24T09:56:48.409Z,6.68
2022-11-24T09:59:17.964Z,6.83
2022-11-24T10:01:52.735Z,6.85
2022-11-24T10:04:02.613Z,7.02
2022-11-24T10:06:11.768Z,7.26
2022-11-24T10:08:39.709Z,7.23
2022-11-24T10:11:00.871Z,7.26
2022-11-24T10:13:16.435Z,7.05
2022-11-24T10:15:46.941Z,6.82
2022-11-24T10:18:25.066Z,6.78
2022-11-24T10:20:29.431Z,6.35
2022-11-24T10:22:44.353Z,6.29
2022-11-24T10:25:13.943Z,6.19
2022-11-24T10:27:18.765Z,6.09
2022-11-24T10:29:24.725Z,6.18
2022-11-24T10:31:31.879Z,6.29
2022-11-24T10:33:31.394Z,6.16
2022-11-24T10:35:37.244Z,6.25
2022-11-24T10:37:42.033Z,6.19
2022-11-24T10:39:46.935Z,6.05
2022-11-24T10:42:02.721Z,6.02
2022-11-24T10:44:01.066Z,5.96
2022-11-24T10:46:10.635Z,5.95
2022-11-24T10:48:18.689Z,6.04
2022-11-24T10:50:22.929Z,5.94
2022-11-24T10:52:25.403Z,5.96
2022-11-24T10:54:27.124Z,5.95
2022-11-24T10:56:45.153Z,6.00
2022-11-24T10:58:43.712Z,6.21
2022-11-24T11:00:43.695Z,6.29
2022-11-24T11:02:43.554Z,6.45
2022-11-24T11:04:41.969Z,6.53
2022-11-24T11:06:40.650Z,6.57
2022-11-24T11:08:46.351Z,6.73
2022-11-24T11:10:49.913Z,6.80
2022-11-24T11:12:48.563Z,6.63
2022-11-24T11:14:49.692Z,6.45
2022-11-24T11:16:53.701Z,6.41
2022-11-24T11:18:54.239Z,6.34
2022-11-24T11:20:56.940Z,6.29
2022-11-24T11:22:56.305Z,6.26
2022-11-24T11:25:06.577Z,6.42
2022-11-24T11:27:07.189Z,6.35
2022-11-24T11:31:35.799Z,6.76
2022-11-24T11:35:57.581Z,6.92
2022-11-24T11:37:58.527Z,6.91
2022-11-24T11:39:56.906Z,6.95
2022-11-24T11:42:09.038Z,6.97
2022-11-24T11:44:18.875Z,6.77
2022-11-24T11:46:17.541Z,7.04
2022-11-24T11:48:30.605Z,7.18
2022-11-24T11:51:14.853Z,7.17
2022-11-24T11:53:16.380Z,7.20
2022-11-24T11:55:49.452Z,7.10
2022-11-24T11:57:58.679Z,6.95
2022-11-24T12:00:09.811Z,6.83
2022-11-24T12:02:48.451Z,6.93
2022-11-24T12:04:54.407Z,7.21
2022-11-24T12:07:02.935Z,7.26
2022-11-24T12:09:21.267Z,7.32
2022-11-24T12:11:30.078Z,7.28
2022-11-24T12:13:46.126Z,7.10
2022-11-24T12:15:49.669Z,7.20
2022-11-24T12:17:54.000Z,7.33
2022-11-24T12:20:15.200Z,7.40
2022-11-24T12:22:22.206Z,7.43
2022-11-24T12:24:30.755Z,7.40
2022-11-24T12:26:36.130Z,7.35
2022-11-24T12:28:44.541Z,6.98
2022-11-24T12:30:51.603Z,6.66
2022-11-24T12:33:18.518Z,6.47
2022-11-24T12:35:24.486Z,6.30
2022-11-24T12:37:46.727Z,6.17
2022-11-24T12:39:54.437Z,6.28
2022-11-24T12:42:05.300Z,6.37
2022-11-24T12:44:05.278Z,6.42
2022-11-24T12:46:15.672Z,6.45
2022-11-24T12:48:26.426Z,6.54
2022-11-24T12:50:28.680Z,6.56
2022-11-24T12:52:32.345Z,6.37
2022-11-24T12:54:38.048Z,6.41
2022-11-24T12:56:41.897Z,6.54
2022-11-24T12:58:50.411Z,6.72
2022-11-24T13:01:02.170Z,6.77
2022-11-24T13:03:16.666Z,6.89
2022-11-24T13:05:22.208Z,6.60
2022-11-24T13:07:27.339Z,6.65
2022-11-24T13:09:25.729Z,6.74
2022-11-24T13:11:36.499Z,6.63
2022-11-24T13:13:59.330Z,6.77
2022-11-24T13:18:52.864Z,6.96
2022-11-24T13:20:51.270Z,7.08
2022-11-24T13:22:52.809Z,6.89
2022-11-24T13:25:17.966Z,6.67
2022-11-24T13:27:42.305Z,6.64
2022-11-24T13:29:43.199Z,6.51
2022-11-24T13:31:41.831Z,6.50
2022-11-24T13:33:41.151Z,6.42
2022-11-24T13:35:39.727Z,6.44
2022-11-24T13:37:53.248Z,6.37
2022-11-24T13:39:54.711Z,6.49
2022-11-24T13:42:02.408Z,6.69
2022-11-24T13:44:24.984Z,6.75
2022-11-24T13:47:04.805Z,6.76
2022-11-24T13:49:04.075Z,6.68
2022-11-24T13:51:16.251Z,6.74
2022-11-24T13:53:23.497Z,6.61
2022-11-24T13:55:32.212Z,6.56
2022-11-24T13:57:35.383Z,6.51
2022-11-24T13:59:36.259Z,6.45
2022-11-24T14:01:40.889Z,6.49
2022-11-24T14:04:07.205Z,6.49
2022-11-24T14:06:08.428Z,6.56
2022-11-24T14:08:07.982Z,6.60
2022-11-24T14:10:14.920Z,6.65
2022-11-24T14:12:16.093Z,6.68
2022-11-24T14:14:20.814Z,6.66
2022-11-24T14:16:20.722Z,6.64
2022-11-24T14:18:23.384Z,6.53
2022-11-24T14:20:29.448Z,6.45
2022-11-24T14:22:33.527Z,6.44
2022-11-24T14:24:39.720Z,6.47
2022-11-24T14:26:41.269Z,6.43
2022-11-24T14:28:40.594Z,6.39
2022-11-24T14:30:43.153Z,6.35
2022-11-24T14:32:42.382Z,6.37
2022-11-24T14:34:40.665Z,6.25
2022-11-24T14:36:40.604Z,6.19
2022-11-24T14:38:38.951Z,6.26
2022-11-24T14:40:42.284Z,6.40
2022-11-24T14:42:40.771Z,6.42
2022-11-24T14:44:48.055Z,6.43
2022-11-24T14:46:46.607Z,6.44
2022-11-24T14:48:49.451Z,6.40
2022-11-24T14:50:47.872Z,6.41
2022-11-24T14:52:53.822Z,6.50
2022-11-24T14:54:55.548Z,6.52
2022-11-24T14:57:01.742Z,6.38
2022-11-24T14:59:00.648Z,6.30
2022-11-24T15:01:22.782Z,6.14
2022-11-24T15:03:21.093Z,6.05
2022-11-24T15:05:20.661Z,6.02
2022-11-24T15:07:25.513Z,5.89
2022-11-24T15:09:29.894Z,5.81
2022-11-24T15:11:31.817Z,5.71
2022-11-24T15:13:37.209Z,5.62
2022-11-24T15:15:37.414Z,5.66
2022-11-24T15:17:35.817Z,5.82
2022-11-24T15:19:35.822Z,5.87
2022-11-24T15:21:35.630Z,6.01
2022-11-24T15:23:35.310Z,6.07
2022-11-24T15:25:35.319Z,6.03
2022-11-24T15:27:33.423Z,6.05
2022-11-24T15:29:31.855Z,5.94
2022-11-24T15:31:30.110Z,5.87
2022-11-24T15:33:28.893Z,5.88
2022-11-24T15:35:29.903Z,5.84
2022-11-24T15:37:33.933Z,5.89
2022-11-24T15:39:32.312Z,5.92
2022-11-24T15:41:33.679Z,5.87
2022-11-24T15:43:33.934Z,5.89
2022-11-24T15:45:32.152Z,5.91
2022-11-24T15:47:30.556Z,5.97
2022-11-24T15:49:28.950Z,5.94
2022-11-24T15:51:28.035Z,5.96
2022-11-24T15:53:31.549Z,5.87
2022-11-24T15:55:30.045Z,5.78
2022-11-24T15:57:33.916Z,5.72
2022-11-24T15:59:33.917Z,5.65
2022-11-24T16:01:34.258Z,5.60
2022-11-24T16:03:49.049Z,5.61
2022-11-24T16:05:49.492Z,5.55
2022-11-24T16:07:54.123Z,5.50
2022-11-24T16:09:55.835Z,5.52
2022-11-24T16:11:54.725Z,5.63
2022-11-24T16:13:59.647Z,5.68
2022-11-24T16:15:58.324Z,5.70
2022-11-24T16:17:57.375Z,5.64
2022-11-24T16:20:00.849Z,5.59
2022-11-24T16:22:01.489Z,5.54
2022-11-24T16:24:00.197Z,5.56
2022-11-24T16:25:58.803Z,5.46
2022-11-24T16:27:57.640Z,5.38
2022-11-24T16:29:57.767Z,5.50
2022-11-24T16:32:00.676Z,5.42
2022-11-24T16:33:59.456Z,5.31
2022-11-24T16:35:58.146Z,5.39
2022-11-24T16:37:57.105Z,5.50
2022-11-24T16:39:55.994Z,5.57
2022-11-24T16:41:54.831Z,5.74
2022-11-24T16:43:53.890Z,5.84
2022-11-24T16:46:04.495Z,5.87
2022-11-24T16:48:03.440Z,5.89
2022-11-24T16:50:02.244Z,5.92
2022-11-24T16:52:00.934Z,5.91
2022-11-24T16:54:00.929Z,5.96
2022-11-24T16:56:02.594Z,5.97
2022-11-24T16:58:00.941Z,5.96
2022-11-24T17:00:01.906Z,6.03
2022-11-24T17:02:05.447Z,6.10
2022-11-24T17:04:07.065Z,6.15
2022-11-24T17:06:12.525Z,6.15
2022-11-24T17:08:10.818Z,6.13
2022-11-24T17:10:12.198Z,6.09
2022-11-24T17:12:10.458Z,6.10
2022-11-24T17:14:08.734Z,5.96
2022-11-24T17:16:08.425Z,5.93
2022-11-24T17:18:24.023Z,5.94
2022-11-24T17:20:23.027Z,6.04
2022-11-24T17:22:21.093Z,6.06
2022-11-24T17:24:19.399Z,6.13
2022-11-24T17:26:18.911Z,6.24
2022-11-24T17:28:17.031Z,6.16
2022-11-24T17:30:17.155Z,6.07
2022-11-24T17:32:15.477Z,5.97
2022-11-24T17:34:15.325Z,5.94
2022-11-24T17:36:13.699Z,5.97
2022-11-24T17:38:11.771Z,5.95
2022-11-24T17:40:34.317Z,6.03
2022-11-24T17:42:32.809Z,5.94
2022-11-24T17:44:32.258Z,5.84
2022-11-24T17:46:33.092Z,5.82
2022-11-24T17:48:32.213Z,5.80
2022-11-24T17:50:31.894Z,5.85
2022-11-24T17:52:30.913Z,5.86
2022-11-24T17:54:45.874Z,5.81
2022-11-24T17:56:46.055Z,5.88
2022-11-24T17:58:44.465Z,5.89
2022-11-24T18:00:55.409Z,5.78
2022-11-24T18:02:53.517Z,5.84
2022-11-24T18:04:51.980Z,5.76
2022-11-24T18:06:51.499Z,5.69
2022-11-24T18:08:49.623Z,5.68
2022-11-24T18:10:48.235Z,5.70
2022-11-24T18:12:46.453Z,5.77
2022-11-24T18:14:44.908Z,5.83
2022-11-24T18:16:43.083Z,6.01
2022-11-24T18:18:44.784Z,6.02
2022-11-24T18:20:55.047Z,6.10
2022-11-24T18:23:09.819Z,6.08
2022-11-24T18:25:08.166Z,6.00
2022-11-24T18:27:06.521Z,5.77
2022-11-24T18:29:05.506Z,5.69
2022-11-24T18:31:04.238Z,5.57
2022-11-24T18:33:02.575Z,5.49
2022-11-24T18:35:00.816Z,5.42
2022-11-24T18:36:59.038Z,5.37
2022-11-24T18:38:59.151Z,5.35
2022-11-24T18:40:59.077Z,5.44
2022-11-24T18:42:57.321Z,5.61
2022-11-24T18:44:57.507Z,5.81
2022-11-24T18:46:55.818Z,5.90
2022-11-24T18:48:54.086Z,5.89
2022-11-24T18:50:52.813Z,5.87
2022-11-24T18:52:50.998Z,5.93
2022-11-24T18:54:50.651Z,5.97
2022-11-24T18:56:48.993Z,6.04
2022-11-24T18:58:47.605Z,6.03
2022-11-24T19:00:45.744Z,5.99
2022-11-24T19:02:44.215Z,5.95
2022-11-24T19:04:42.386Z,5.84
2022-11-24T19:06:40.660Z,5.72
2022-11-24T19:08:38.895Z,5.84
2022-11-24T19:10:38.641Z,5.70
2022-11-24T19:12:37.324Z,5.62
2022-11-24T19:14:35.856Z,5.64
2022-11-24T19:16:34.909Z,5.59
2022-11-24T19:18:33.391Z,5.55
2022-11-24T19:20:31.655Z,5.52
2022-11-24T19:22:30.461Z,5.50
2022-11-24T19:24:28.953Z,5.39
2022-11-24T19:26:28.704Z,5.33
2022-11-24T19:28:26.956Z,5.25
2022-11-24T19:30:25.499Z,5.27
2022-11-24T19:32:23.865Z,5.21
2022-11-24T19:34:22.086Z,5.32
2022-11-24T19:36:21.891Z,5.45
2022-11-24T19:38:20.232Z,5.52
2022-11-24T19:40:18.605Z,5.58
2022-11-24T19:42:18.414Z,5.61
2022-11-24T19:44:17.904Z,5.70
2022-11-24T19:46:18.717Z,5.79
2022-11-24T19:48:17.157Z,5.67
2022-11-24T19:50:15.268Z,5.64
2022-11-24T19:52:14.036Z,5.53
2022-11-24T19:54:13.850Z,5.39
2022-11-24T19:56:14.011Z,5.27
2022-11-24T19:58:13.483Z,5.30
2022-11-24T20:00:13.103Z,5.50
2022-11-24T20:02:12.993Z,5.41
2022-11-24T20:04:13.659Z,5.32
2022-11-24T20:06:14.339Z,5.28
2022-11-24T20:08:12.637Z,5.32
2022-11-24T20:10:11.657Z,5.62
2022-11-24T20:12:09.944Z,5.50
2022-11-24T20:14:12.342Z,5.50
2022-11-24T20:16:12.319Z,5.42
2022-11-24T20:18:10.642Z,5.38
2022-11-24T20:20:09.754Z,5.35
2022-11-24T20:22:08.348Z,5.35
2022-11-24T20:24:09.276Z,5.34
2022-11-24T20:26:10.071Z,5.28
2022-11-24T20:28:08.471Z,5.36
2022-11-24T20:30:12.084Z,5.35
2022-11-24T20:32:10.323Z,5.23
2022-11-24T20:34:09.970Z,5.25
2022-11-24T20:36:11.068Z,5.19
2022-11-24T20:38:09.413Z,5.12
2022-11-24T20:40:09.554Z,5.16
2022-11-24T20:42:08.282Z,5.22
2022-11-24T20:44:10.712Z,5.28
2022-11-24T20:46:12.374Z,5.27
2022-11-24T20:48:10.651Z,5.28
2022-11-24T20:50:09.773Z,5.18
2022-11-24T20:52:07.961Z,5.23
2022-11-24T20:54:11.149Z,5.13
2022-11-24T20:56:11.604Z,5.06
2022-11-24T20:58:09.961Z,5.18
2022-11-24T21:00:12.306Z,5.23
2022-11-24T21:02:12.397Z,5.22
2022-11-24T21:04:12.426Z,5.20
2022-11-24T21:06:10.947Z,5.29
2022-11-24T21:08:09.354Z,5.29
2022-11-24T21:10:08.825Z,5.44
2022-11-24T21:12:07.507Z,5.36
2022-11-24T21:14:06.882Z,5.25
2022-11-24T21:16:12.954Z,5.36
2022-11-24T21:18:12.781Z,5.49
2022-11-24T21:20:11.829Z,5.50
2022-11-24T21:22:10.169Z,5.51
2022-11-24T21:24:12.434Z,5.39
2022-11-24T21:26:15.049Z,5.28
2022-11-24T21:28:14.964Z,5.13
2022-11-24T21:30:14.109Z,5.07
2022-11-24T21:32:12.338Z,5.00
2022-11-24T21:34:16.022Z,4.93
2022-11-24T21:36:15.512Z,4.84
2022-11-24T21:38:14.864Z,4.75
2022-11-24T21:40:15.123Z,4.86
2022-11-24T21:42:13.315Z,4.88
2022-11-24T21:44:12.968Z,4.93
2022-11-24T21:46:12.609Z,4.91
2022-11-24T21:48:10.969Z,4.92
2022-11-24T21:50:12.293Z,4.99
2022-11-24T21:52:10.377Z,4.98
2022-11-24T21:54:09.072Z,4.93
2022-11-24T21:56:09.798Z,4.82
2022-11-24T21:58:08.342Z,4.78
2022-11-24T22:00:08.038Z,4.75
2022-11-24T22:02:10.251Z,4.72
2022-11-24T22:04:11.339Z,4.69
2022-11-24T22:06:13.271Z,4.62
2022-11-24T22:08:11.444Z,4.60
2022-11-24T22:10:12.925Z,4.70
2022-11-24T22:12:11.149Z,4.79
2022-11-24T22:14:10.201Z,4.74
2022-11-24T22:16:10.490Z,4.85
2022-11-24T22:18:09.035Z,4.93
2022-11-24T22:20:08.850Z,4.94
2022-11-24T22:22:08.319Z,5.04
2022-11-24T22:24:06.901Z,5.06
2022-11-24T22:26:06.185Z,5.13
2022-11-24T22:28:04.353Z,5.08
2022-11-24T22:30:05.026Z,5.02
2022-11-24T22:32:03.429Z,4.90
2022-11-24T22:34:02.409Z,4.80
2022-11-24T22:36:01.579Z,4.80
2022-11-24T22:38:01.148Z,4.88
2022-11-24T22:39:59.329Z,5.08
2022-11-24T22:41:57.486Z,5.21
2022-11-24T22:43:55.849Z,5.35
2022-11-24T22:45:54.302Z,5.45
2022-11-24T22:47:55.134Z,5.59
2022-11-24T22:49:53.448Z,5.64
2022-11-24T22:51:51.831Z,5.54
2022-11-24T22:53:53.513Z,5.46
2022-11-24T22:55:51.728Z,5.47
2022-11-24T22:57:52.285Z,5.60
2022-11-24T22:59:52.734Z,5.48
2022-11-24T23:01:50.742Z,5.51
2022-11-24T23:03:49.686Z,5.51
2022-11-24T23:05:48.054Z,5.52
2022-11-24T23:07:46.299Z,5.42
2022-11-24T23:09:47.669Z,5.36
2022-11-24T23:11:45.883Z,5.42
2022-11-24T23:13:45.357Z,5.60
2022-11-24T23:15:43.612Z,5.51
2022-11-24T23:17:41.762Z,5.45
2022-11-24T23:19:40.146Z,5.48
2022-11-24T23:21:39.471Z,5.62
2022-11-24T23:23:37.620Z,5.65
2022-11-24T23:25:37.274Z,5.69
2022-11-24T23:27:35.404Z,5.74
2022-11-24T23:29:35.417Z,5.66
2022-11-24T23:31:34.040Z,5.59
2022-11-24T23:33:32.802Z,5.48
2022-11-24T23:35:31.240Z,5.47
2022-11-24T23:37:52.306Z,5.35
2022-11-24T23:39:47.955Z,5.16
2022-11-24T23:41:47.598Z,5.06
2022-11-24T23:43:45.937Z,5.10
2022-11-24T23:45:44.222Z,5.21
2022-11-24T23:47:42.346Z,5.24
2022-11-24T23:49:40.524Z,5.33
2022-11-24T23:51:42.071Z,5.37
2022-11-24T23:53:41.014Z,5.40
2022-11-24T23:55:39.262Z,5.38
2022-11-24T23:57:38.789Z,5.29
2022-11-24T23:59:37.040Z,5.33
